Effie, Minnesota
Current Conditions -  °F | °C
As of 11:33 PM on Tuesday 21 Oct 2014 (Local Time) from KFOZ Reporting Station
Clear Clear  
Wind Chill:   Ceiling: Unl
Heat Index:   Visibility: 10mi
Dew Point:   Wind: 9mph
Humidity: 81%   Direction: 160°SSE
Pressure: 30.11"   Gusts: NA
Location:  47.84°N, 93.64°W
Report Text: KFOZ 220433Z AUTO 16008KT 10SM CLR 05/02 A3011 RMK AO2
Loading
Personal Weather Stations






























Interactive Weather Map
Tropical Storm Tracking
New forecast layout! Learn more

10-Day Weather Forecast

Advertisements
Track Severe Weather on mobile